sensor_id;sensor_type;location;lat;lon;timestamp;P1;durP1;ratioP1;P2;durP2;ratioP2
54269;SDS011;40181;51.560;13.000;2023-03-13T00:01:34;4.80;;;2.47;;
54269;SDS011;40181;51.560;13.000;2023-03-13T00:04:06;4.70;;;1.92;;
54269;SDS011;40181;51.560;13.000;2023-03-13T00:06:38;1.77;;;1.20;;
54269;SDS011;40181;51.560;13.000;2023-03-13T00:09:08;3.42;;;2.05;;
54269;SDS011;40181;51.560;13.000;2023-03-13T00:11:39;2.67;;;2.15;;
54269;SDS011;40181;51.560;13.000;2023-03-13T00:14:08;2.90;;;1.73;;
54269;SDS011;40181;51.560;13.000;2023-03-13T00:16:38;4.18;;;2.10;;
54269;SDS011;40181;51.560;13.000;2023-03-13T00:19:07;5.00;;;1.70;;
54269;SDS011;40181;51.560;13.000;2023-03-13T00:21:39;2.87;;;1.50;;
54269;SDS011;40181;51.560;13.000;2023-03-13T00:24:09;4.80;;;2.17;;
54269;SDS011;40181;51.560;13.000;2023-03-13T00:26:39;4.90;;;1.50;;
54269;SDS011;40181;51.560;13.000;2023-03-13T00:29:08;3.80;;;1.45;;
54269;SDS011;40181;51.560;13.000;2023-03-13T00:31:37;2.33;;;1.55;;
54269;SDS011;40181;51.560;13.000;2023-03-13T00:34:07;2.45;;;1.65;;
54269;SDS011;40181;51.560;13.000;2023-03-13T00:39:09;2.17;;;1.35;;
54269;SDS011;40181;51.560;13.000;2023-03-13T00:41:38;4.47;;;2.15;;
54269;SDS011;40181;51.560;13.000;2023-03-13T00:44:07;3.50;;;1.85;;
54269;SDS011;40181;51.560;13.000;2023-03-13T00:46:37;3.35;;;1.80;;
54269;SDS011;40181;51.560;13.000;2023-03-13T00:49:06;2.58;;;1.60;;
54269;SDS011;40181;51.560;13.000;2023-03-13T00:51:35;6.38;;;2.42;;
54269;SDS011;40181;51.560;13.000;2023-03-13T00:54:07;7.32;;;2.15;;
54269;SDS011;40181;51.560;13.000;2023-03-13T00:56:37;4.35;;;2.20;;
54269;SDS011;40181;51.560;13.000;2023-03-13T00:59:06;2.63;;;1.55;;
54269;SDS011;40181;51.560;13.000;2023-03-13T01:01:35;4.55;;;2.13;;
54269;SDS011;40181;51.560;13.000;2023-03-13T01:04:05;3.65;;;1.83;;
54269;SDS011;40181;51.560;13.000;2023-03-13T01:06:38;2.90;;;1.75;;
54269;SDS011;40181;51.560;13.000;2023-03-13T01:09:12;3.50;;;1.90;;
54269;SDS011;40181;51.560;13.000;2023-03-13T01:11:43;3.33;;;2.28;;
54269;SDS011;40181;51.560;13.000;2023-03-13T01:14:14;4.13;;;2.30;;
54269;SDS011;40181;51.560;13.000;2023-03-13T01:16:46;3.78;;;2.10;;
54269;SDS011;40181;51.560;13.000;2023-03-13T01:19:15;3.65;;;2.00;;
54269;SDS011;40181;51.560;13.000;2023-03-13T01:21:46;2.30;;;1.83;;
54269;SDS011;40181;51.560;13.000;2023-03-13T01:24:17;1.67;;;1.48;;
54269;SDS011;40181;51.560;13.000;2023-03-13T01:26:48;4.20;;;2.45;;
54269;SDS011;40181;51.560;13.000;2023-03-13T01:29:17;5.68;;;2.67;;
54269;SDS011;40181;51.560;13.000;2023-03-13T01:31:47;4.63;;;2.13;;
54269;SDS011;40181;51.560;13.000;2023-03-13T01:34:16;8.07;;;3.17;;
54269;SDS011;40181;51.560;13.000;2023-03-13T01:36:45;4.80;;;2.10;;
54269;SDS011;40181;51.560;13.000;2023-03-13T01:39:18;9.15;;;2.33;;
54269;SDS011;40181;51.560;13.000;2023-03-13T01:41:47;3.03;;;1.88;;
54269;SDS011;40181;51.560;13.000;2023-03-13T01:44:20;4.53;;;2.35;;
54269;SDS011;40181;51.560;13.000;2023-03-13T01:46:51;7.25;;;2.38;;
54269;SDS011;40181;51.560;13.000;2023-03-13T01:49:21;6.18;;;3.25;;
54269;SDS011;40181;51.560;13.000;2023-03-13T01:51:55;4.72;;;2.50;;
54269;SDS011;40181;51.560;13.000;2023-03-13T01:54:33;4.25;;;2.50;;
54269;SDS011;40181;51.560;13.000;2023-03-13T01:57:07;4.45;;;2.85;;
54269;SDS011;40181;51.560;13.000;2023-03-13T01:59:43;7.65;;;3.45;;
54269;SDS011;40181;51.560;13.000;2023-03-13T02:02:16;5.10;;;2.88;;
54269;SDS011;40181;51.560;13.000;2023-03-13T02:04:46;5.88;;;2.13;;
54269;SDS011;40181;51.560;13.000;2023-03-13T02:07:22;4.10;;;2.05;;
54269;SDS011;40181;51.560;13.000;2023-03-13T02:09:59;3.97;;;2.90;;
54269;SDS011;40181;51.560;13.000;2023-03-13T02:12:30;4.05;;;2.33;;
54269;SDS011;40181;51.560;13.000;2023-03-13T02:15:02;4.10;;;2.03;;
54269;SDS011;40181;51.560;13.000;2023-03-13T02:17:35;2.88;;;1.98;;
54269;SDS011;40181;51.560;13.000;2023-03-13T02:20:06;6.10;;;2.90;;
54269;SDS011;40181;51.560;13.000;2023-03-13T02:22:41;5.53;;;2.17;;
54269;SDS011;40181;51.560;13.000;2023-03-13T02:25:19;3.55;;;2.10;;
54269;SDS011;40181;51.560;13.000;2023-03-13T02:28:03;5.13;;;2.50;;
54269;SDS011;40181;51.560;13.000;2023-03-13T02:30:36;4.47;;;2.15;;
54269;SDS011;40181;51.560;13.000;2023-03-13T02:33:07;6.45;;;2.67;;
54269;SDS011;40181;51.560;13.000;2023-03-13T02:35:36;4.03;;;2.28;;
54269;SDS011;40181;51.560;13.000;2023-03-13T02:38:06;13.27;;;3.47;;
54269;SDS011;40181;51.560;13.000;2023-03-13T02:40:41;6.80;;;3.75;;
54269;SDS011;40181;51.560;13.000;2023-03-13T02:43:14;9.23;;;3.75;;
54269;SDS011;40181;51.560;13.000;2023-03-13T02:45:59;7.78;;;3.05;;
54269;SDS011;40181;51.560;13.000;2023-03-13T02:48:34;7.68;;;3.22;;
54269;SDS011;40181;51.560;13.000;2023-03-13T02:51:07;8.35;;;4.32;;
54269;SDS011;40181;51.560;13.000;2023-03-13T02:53:45;4.00;;;2.05;;
54269;SDS011;40181;51.560;13.000;2023-03-13T02:56:19;14.13;;;4.60;;
54269;SDS011;40181;51.560;13.000;2023-03-13T02:58:52;7.75;;;3.85;;
54269;SDS011;40181;51.560;13.000;2023-03-13T03:01:21;9.73;;;3.83;;
54269;SDS011;40181;51.560;13.000;2023-03-13T03:03:50;15.80;;;5.00;;
54269;SDS011;40181;51.560;13.000;2023-03-13T03:06:19;10.50;;;4.85;;
54269;SDS011;40181;51.560;13.000;2023-03-13T03:08:49;21.40;;;4.32;;
54269;SDS011;40181;51.560;13.000;2023-03-13T03:11:21;8.82;;;3.20;;
54269;SDS011;40181;51.560;13.000;2023-03-13T03:13:50;8.00;;;3.33;;
54269;SDS011;40181;51.560;13.000;2023-03-13T03:16:19;10.85;;;3.55;;
54269;SDS011;40181;51.560;13.000;2023-03-13T03:18:48;9.82;;;4.38;;
54269;SDS011;40181;51.560;13.000;2023-03-13T03:21:17;8.25;;;3.38;;
54269;SDS011;40181;51.560;13.000;2023-03-13T03:26:17;9.13;;;4.82;;
54269;SDS011;40181;51.560;13.000;2023-03-13T03:28:48;10.93;;;4.82;;
54269;SDS011;40181;51.560;13.000;2023-03-13T03:31:18;7.65;;;4.00;;
54269;SDS011;40181;51.560;13.000;2023-03-13T03:33:47;7.35;;;3.20;;
54269;SDS011;40181;51.560;13.000;2023-03-13T03:36:16;8.07;;;2.92;;
54269;SDS011;40181;51.560;13.000;2023-03-13T03:38:48;6.15;;;3.17;;
54269;SDS011;40181;51.560;13.000;2023-03-13T03:41:20;8.80;;;3.20;;
54269;SDS011;40181;51.560;13.000;2023-03-13T03:43:49;8.93;;;4.20;;
54269;SDS011;40181;51.560;13.000;2023-03-13T03:46:19;8.75;;;3.35;;
54269;SDS011;40181;51.560;13.000;2023-03-13T03:48:48;16.20;;;3.83;;
54269;SDS011;40181;51.560;13.000;2023-03-13T03:51:18;10.05;;;3.35;;
54269;SDS011;40181;51.560;13.000;2023-03-13T03:53:48;9.07;;;3.75;;
54269;SDS011;40181;51.560;13.000;2023-03-13T03:56:17;9.32;;;3.60;;
54269;SDS011;40181;51.560;13.000;2023-03-13T03:58:48;8.77;;;3.85;;
54269;SDS011;40181;51.560;13.000;2023-03-13T04:01:17;9.50;;;3.03;;
54269;SDS011;40181;51.560;13.000;2023-03-13T04:03:46;6.20;;;2.80;;
54269;SDS011;40181;51.560;13.000;2023-03-13T04:06:16;4.97;;;2.72;;
54269;SDS011;40181;51.560;13.000;2023-03-13T04:08:45;7.80;;;3.28;;
54269;SDS011;40181;51.560;13.000;2023-03-13T04:11:14;7.88;;;3.47;;
54269;SDS011;40181;51.560;13.000;2023-03-13T04:13:45;12.57;;;3.17;;
54269;SDS011;40181;51.560;13.000;2023-03-13T04:16:14;5.57;;;2.90;;
54269;SDS011;40181;51.560;13.000;2023-03-13T04:18:43;5.57;;;2.58;;
54269;SDS011;40181;51.560;13.000;2023-03-13T04:21:12;11.60;;;3.53;;
54269;SDS011;40181;51.560;13.000;2023-03-13T04:23:41;20.60;;;5.07;;
54269;SDS011;40181;51.560;13.000;2023-03-13T04:26:10;8.18;;;2.60;;
54269;SDS011;40181;51.560;13.000;2023-03-13T04:28:39;10.35;;;3.58;;
54269;SDS011;40181;51.560;13.000;2023-03-13T04:31:11;11.93;;;3.45;;
54269;SDS011;40181;51.560;13.000;2023-03-13T04:33:40;11.07;;;3.13;;
54269;SDS011;40181;51.560;13.000;2023-03-13T04:36:09;6.15;;;2.88;;
54269;SDS011;40181;51.560;13.000;2023-03-13T04:38:38;4.25;;;2.10;;
54269;SDS011;40181;51.560;13.000;2023-03-13T04:41:07;10.07;;;2.25;;
54269;SDS011;40181;51.560;13.000;2023-03-13T04:43:36;10.63;;;4.07;;
54269;SDS011;40181;51.560;13.000;2023-03-13T04:46:05;12.18;;;3.88;;
54269;SDS011;40181;51.560;13.000;2023-03-13T04:48:37;11.77;;;3.25;;
54269;SDS011;40181;51.560;13.000;2023-03-13T04:51:06;5.90;;;3.35;;
54269;SDS011;40181;51.560;13.000;2023-03-13T04:53:35;10.18;;;2.35;;
54269;SDS011;40181;51.560;13.000;2023-03-13T04:56:05;3.60;;;2.00;;
54269;SDS011;40181;51.560;13.000;2023-03-13T04:58:34;6.55;;;3.38;;
54269;SDS011;40181;51.560;13.000;2023-03-13T05:01:03;4.28;;;2.28;;
54269;SDS011;40181;51.560;13.000;2023-03-13T05:03:32;4.97;;;2.53;;
54269;SDS011;40181;51.560;13.000;2023-03-13T05:06:04;9.35;;;3.60;;
54269;SDS011;40181;51.560;13.000;2023-03-13T05:08:34;7.00;;;2.63;;
54269;SDS011;40181;51.560;13.000;2023-03-13T05:11:03;5.10;;;2.30;;
54269;SDS011;40181;51.560;13.000;2023-03-13T05:13:32;7.88;;;3.25;;
54269;SDS011;40181;51.560;13.000;2023-03-13T05:16:02;9.93;;;3.55;;
54269;SDS011;40181;51.560;13.000;2023-03-13T05:18:32;5.40;;;2.80;;
54269;SDS011;40181;51.560;13.000;2023-03-13T05:21:03;7.80;;;4.00;;
54269;SDS011;40181;51.560;13.000;2023-03-13T05:23:33;9.18;;;3.40;;
54269;SDS011;40181;51.560;13.000;2023-03-13T05:26:02;7.93;;;2.25;;
54269;SDS011;40181;51.560;13.000;2023-03-13T05:28:32;7.18;;;1.92;;
54269;SDS011;40181;51.560;13.000;2023-03-13T05:31:01;14.77;;;4.30;;
54269;SDS011;40181;51.560;13.000;2023-03-13T05:33:30;9.07;;;3.40;;
54269;SDS011;40181;51.560;13.000;2023-03-13T05:35:59;20.85;;;4.32;;
54269;SDS011;40181;51.560;13.000;2023-03-13T05:38:31;11.65;;;3.72;;
54269;SDS011;40181;51.560;13.000;2023-03-13T05:41:00;8.70;;;3.33;;
54269;SDS011;40181;51.560;13.000;2023-03-13T05:43:30;11.02;;;2.72;;
54269;SDS011;40181;51.560;13.000;2023-03-13T05:45:59;15.20;;;4.47;;
54269;SDS011;40181;51.560;13.000;2023-03-13T05:48:28;12.98;;;4.53;;
54269;SDS011;40181;51.560;13.000;2023-03-13T05:50:57;10.27;;;2.38;;
54269;SDS011;40181;51.560;13.000;2023-03-13T05:53:26;9.30;;;2.63;;
54269;SDS011;40181;51.560;13.000;2023-03-13T05:55:57;9.30;;;3.90;;
54269;SDS011;40181;51.560;13.000;2023-03-13T05:58:26;13.98;;;3.55;;
54269;SDS011;40181;51.560;13.000;2023-03-13T06:00:56;8.30;;;3.25;;
54269;SDS011;40181;51.560;13.000;2023-03-13T06:03:25;9.73;;;3.22;;
54269;SDS011;40181;51.560;13.000;2023-03-13T06:05:56;5.80;;;3.15;;
54269;SDS011;40181;51.560;13.000;2023-03-13T06:08:28;7.07;;;3.45;;
54269;SDS011;40181;51.560;13.000;2023-03-13T06:11:00;6.20;;;3.03;;
54269;SDS011;40181;51.560;13.000;2023-03-13T06:13:30;19.95;;;4.75;;
54269;SDS011;40181;51.560;13.000;2023-03-13T06:15:59;8.32;;;3.20;;
54269;SDS011;40181;51.560;13.000;2023-03-13T06:18:28;6.45;;;3.03;;
54269;SDS011;40181;51.560;13.000;2023-03-13T06:20:57;10.35;;;3.67;;
54269;SDS011;40181;51.560;13.000;2023-03-13T06:23:28;14.50;;;4.03;;
54269;SDS011;40181;51.560;13.000;2023-03-13T06:26:00;5.30;;;2.60;;
54269;SDS011;40181;51.560;13.000;2023-03-13T06:28:29;10.77;;;3.63;;
54269;SDS011;40181;51.560;13.000;2023-03-13T06:31:02;9.07;;;2.47;;
54269;SDS011;40181;51.560;13.000;2023-03-13T06:33:33;5.60;;;2.65;;
54269;SDS011;40181;51.560;13.000;2023-03-13T06:36:02;3.25;;;1.90;;
54269;SDS011;40181;51.560;13.000;2023-03-13T06:38:32;8.60;;;3.28;;
54269;SDS011;40181;51.560;13.000;2023-03-13T06:41:04;8.52;;;3.00;;
54269;SDS011;40181;51.560;13.000;2023-03-13T06:43:33;5.72;;;2.67;;
54269;SDS011;40181;51.560;13.000;2023-03-13T06:46:04;4.65;;;2.42;;
54269;SDS011;40181;51.560;13.000;2023-03-13T06:48:33;8.90;;;2.65;;
54269;SDS011;40181;51.560;13.000;2023-03-13T06:51:03;7.15;;;3.78;;
54269;SDS011;40181;51.560;13.000;2023-03-13T06:53:32;14.85;;;4.45;;
54269;SDS011;40181;51.560;13.000;2023-03-13T06:56:01;11.98;;;2.92;;
54269;SDS011;40181;51.560;13.000;2023-03-13T06:58:33;4.43;;;2.22;;
54269;SDS011;40181;51.560;13.000;2023-03-13T07:01:04;3.40;;;1.80;;
54269;SDS011;40181;51.560;13.000;2023-03-13T07:03:34;5.03;;;2.47;;
54269;SDS011;40181;51.560;13.000;2023-03-13T07:06:05;8.40;;;3.83;;
54269;SDS011;40181;51.560;13.000;2023-03-13T07:08:36;6.90;;;3.35;;
54269;SDS011;40181;51.560;13.000;2023-03-13T07:11:09;5.53;;;2.37;;
54269;SDS011;40181;51.560;13.000;2023-03-13T07:13:39;5.60;;;2.50;;
54269;SDS011;40181;51.560;13.000;2023-03-13T07:16:10;8.77;;;3.65;;
54269;SDS011;40181;51.560;13.000;2023-03-13T07:18:40;10.27;;;3.97;;
54269;SDS011;40181;51.560;13.000;2023-03-13T07:21:10;14.85;;;3.30;;
54269;SDS011;40181;51.560;13.000;2023-03-13T07:23:39;9.45;;;3.55;;
54269;SDS011;40181;51.560;13.000;2023-03-13T07:26:12;7.82;;;3.80;;
54269;SDS011;40181;51.560;13.000;2023-03-13T07:28:42;8.93;;;3.35;;
54269;SDS011;40181;51.560;13.000;2023-03-13T07:31:12;6.00;;;2.90;;
54269;SDS011;40181;51.560;13.000;2023-03-13T07:33:44;7.22;;;3.45;;
54269;SDS011;40181;51.560;13.000;2023-03-13T07:36:16;2.42;;;1.58;;
54269;SDS011;40181;51.560;13.000;2023-03-13T07:38:46;7.10;;;2.85;;
54269;SDS011;40181;51.560;13.000;2023-03-13T07:41:18;4.00;;;1.85;;
54269;SDS011;40181;51.560;13.000;2023-03-13T07:43:48;8.13;;;3.40;;
54269;SDS011;40181;51.560;13.000;2023-03-13T07:46:17;5.68;;;2.65;;
54269;SDS011;40181;51.560;13.000;2023-03-13T07:48:47;4.03;;;1.92;;
54269;SDS011;40181;51.560;13.000;2023-03-13T07:51:17;7.50;;;2.28;;
54269;SDS011;40181;51.560;13.000;2023-03-13T07:53:48;10.43;;;3.33;;
54269;SDS011;40181;51.560;13.000;2023-03-13T07:56:21;4.82;;;1.80;;
54269;SDS011;40181;51.560;13.000;2023-03-13T07:58:51;5.28;;;2.00;;
54269;SDS011;40181;51.560;13.000;2023-03-13T08:01:21;8.65;;;3.10;;
54269;SDS011;40181;51.560;13.000;2023-03-13T08:03:52;5.30;;;2.00;;
54269;SDS011;40181;51.560;13.000;2023-03-13T08:06:23;9.10;;;3.53;;
54269;SDS011;40181;51.560;13.000;2023-03-13T08:08:55;7.43;;;2.33;;
54269;SDS011;40181;51.560;13.000;2023-03-13T08:11:28;6.65;;;2.10;;
54269;SDS011;40181;51.560;13.000;2023-03-13T08:13:57;14.80;;;3.67;;
54269;SDS011;40181;51.560;13.000;2023-03-13T08:16:27;4.97;;;2.30;;
54269;SDS011;40181;51.560;13.000;2023-03-13T08:18:58;2.63;;;1.83;;
54269;SDS011;40181;51.560;13.000;2023-03-13T08:21:30;8.07;;;2.60;;
54269;SDS011;40181;51.560;13.000;2023-03-13T08:24:03;8.73;;;2.47;;
54269;SDS011;40181;51.560;13.000;2023-03-13T08:26:37;9.45;;;2.38;;
54269;SDS011;40181;51.560;13.000;2023-03-13T08:29:09;8.45;;;2.72;;
54269;SDS011;40181;51.560;13.000;2023-03-13T08:31:42;5.65;;;2.60;;
54269;SDS011;40181;51.560;13.000;2023-03-13T08:34:13;4.30;;;1.42;;
54269;SDS011;40181;51.560;13.000;2023-03-13T08:39:13;9.82;;;1.90;;
54269;SDS011;40181;51.560;13.000;2023-03-13T08:41:46;17.65;;;2.85;;
54269;SDS011;40181;51.560;13.000;2023-03-13T08:44:17;5.68;;;2.45;;
54269;SDS011;40181;51.560;13.000;2023-03-13T08:46:46;6.47;;;2.38;;
54269;SDS011;40181;51.560;13.000;2023-03-13T08:49:16;4.00;;;1.92;;
54269;SDS011;40181;51.560;13.000;2023-03-13T08:51:45;3.97;;;1.95;;
54269;SDS011;40181;51.560;13.000;2023-03-13T08:54:14;4.13;;;2.03;;
54269;SDS011;40181;51.560;13.000;2023-03-13T08:56:46;9.80;;;2.65;;
54269;SDS011;40181;51.560;13.000;2023-03-13T08:59:15;4.72;;;2.13;;
54269;SDS011;40181;51.560;13.000;2023-03-13T09:01:44;3.67;;;1.30;;
54269;SDS011;40181;51.560;13.000;2023-03-13T09:04:13;2.83;;;1.33;;
54269;SDS011;40181;51.560;13.000;2023-03-13T09:06:43;3.22;;;1.75;;
54269;SDS011;40181;51.560;13.000;2023-03-13T09:09:13;1.15;;;0.90;;
54269;SDS011;40181;51.560;13.000;2023-03-13T09:11:42;3.40;;;2.00;;
54269;SDS011;40181;51.560;13.000;2023-03-13T09:14:14;7.85;;;1.77;;
54269;SDS011;40181;51.560;13.000;2023-03-13T09:16:43;2.72;;;1.33;;
54269;SDS011;40181;51.560;13.000;2023-03-13T09:19:12;4.13;;;2.08;;
54269;SDS011;40181;51.560;13.000;2023-03-13T09:21:41;2.35;;;1.48;;
54269;SDS011;40181;51.560;13.000;2023-03-13T09:24:10;1.55;;;1.00;;
54269;SDS011;40181;51.560;13.000;2023-03-13T09:26:39;2.53;;;1.48;;
54269;SDS011;40181;51.560;13.000;2023-03-13T09:29:11;2.40;;;1.40;;
54269;SDS011;40181;51.560;13.000;2023-03-13T09:31:40;1.58;;;1.23;;
54269;SDS011;40181;51.560;13.000;2023-03-13T09:34:09;4.93;;;1.75;;
54269;SDS011;40181;51.560;13.000;2023-03-13T09:36:38;4.43;;;1.48;;
54269;SDS011;40181;51.560;13.000;2023-03-13T09:39:07;3.85;;;1.50;;
54269;SDS011;40181;51.560;13.000;2023-03-13T09:41:38;2.42;;;1.23;;
54269;SDS011;40181;51.560;13.000;2023-03-13T09:44:16;4.18;;;1.98;;
54269;SDS011;40181;51.560;13.000;2023-03-13T09:46:54;4.50;;;2.20;;
54269;SDS011;40181;51.560;13.000;2023-03-13T09:49:31;3.85;;;2.25;;
54269;SDS011;40181;51.560;13.000;2023-03-13T09:52:09;4.63;;;2.38;;
54269;SDS011;40181;51.560;13.000;2023-03-13T09:54:45;2.45;;;1.77;;
54269;SDS011;40181;51.560;13.000;2023-03-13T09:57:21;3.38;;;1.48;;
54269;SDS011;40181;51.560;13.000;2023-03-13T10:00:02;3.53;;;1.83;;
54269;SDS011;40181;51.560;13.000;2023-03-13T10:02:39;3.83;;;1.95;;
54269;SDS011;40181;51.560;13.000;2023-03-13T10:05:13;2.33;;;1.25;;
54269;SDS011;40181;51.560;13.000;2023-03-13T10:07:47;1.33;;;0.98;;
54269;SDS011;40181;51.560;13.000;2023-03-13T10:10:18;1.98;;;0.85;;
54269;SDS011;40181;51.560;13.000;2023-03-13T10:12:56;1.50;;;0.95;;
54269;SDS011;40181;51.560;13.000;2023-03-13T10:15:43;3.78;;;1.30;;
54269;SDS011;40181;51.560;13.000;2023-03-13T10:18:18;2.05;;;1.20;;
54269;SDS011;40181;51.560;13.000;2023-03-13T10:20:50;7.00;;;1.77;;
54269;SDS011;40181;51.560;13.000;2023-03-13T10:23:24;1.67;;;1.20;;
54269;SDS011;40181;51.560;13.000;2023-03-13T10:26:03;4.50;;;1.43;;
54269;SDS011;40181;51.560;13.000;2023-03-13T10:28:32;1.05;;;0.77;;
54269;SDS011;40181;51.560;13.000;2023-03-13T10:31:13;1.85;;;1.30;;
54269;SDS011;40181;51.560;13.000;2023-03-13T10:33:53;2.55;;;1.27;;
54269;SDS011;40181;51.560;13.000;2023-03-13T10:36:38;2.85;;;1.40;;
54269;SDS011;40181;51.560;13.000;2023-03-13T10:39:13;2.60;;;1.25;;
54269;SDS011;40181;51.560;13.000;2023-03-13T10:41:44;2.45;;;1.38;;
54269;SDS011;40181;51.560;13.000;2023-03-13T10:44:16;6.90;;;1.27;;
54269;SDS011;40181;51.560;13.000;2023-03-13T10:46:49;2.10;;;1.10;;
54269;SDS011;40181;51.560;13.000;2023-03-13T10:49:20;2.92;;;1.40;;
54269;SDS011;40181;51.560;13.000;2023-03-13T10:51:51;2.60;;;1.45;;
54269;SDS011;40181;51.560;13.000;2023-03-13T10:54:22;1.95;;;1.00;;
54269;SDS011;40181;51.560;13.000;2023-03-13T10:57:06;1.90;;;0.93;;
54269;SDS011;40181;51.560;13.000;2023-03-13T10:59:51;6.38;;;1.38;;
54269;SDS011;40181;51.560;13.000;2023-03-13T11:02:25;1.75;;;1.17;;
54269;SDS011;40181;51.560;13.000;2023-03-13T11:04:59;1.23;;;0.65;;
54269;SDS011;40181;51.560;13.000;2023-03-13T11:07:29;1.67;;;1.15;;
54269;SDS011;40181;51.560;13.000;2023-03-13T11:10:03;1.42;;;1.00;;
54269;SDS011;40181;51.560;13.000;2023-03-13T11:12:47;1.52;;;0.80;;
54269;SDS011;40181;51.560;13.000;2023-03-13T11:15:19;1.77;;;0.88;;
54269;SDS011;40181;51.560;13.000;2023-03-13T11:17:58;1.00;;;0.60;;
54269;SDS011;40181;51.560;13.000;2023-03-13T11:20:31;1.13;;;0.85;;
54269;SDS011;40181;51.560;13.000;2023-03-13T11:23:11;0.60;;;0.60;;
54269;SDS011;40181;51.560;13.000;2023-03-13T11:25:49;1.15;;;0.82;;
54269;SDS011;40181;51.560;13.000;2023-03-13T11:28:33;1.20;;;0.70;;
54269;SDS011;40181;51.560;13.000;2023-03-13T11:31:14;0.20;;;0.20;;
54269;SDS011;40181;51.560;13.000;2023-03-13T11:33:54;0.60;;;0.50;;
54269;SDS011;40181;51.560;13.000;2023-03-13T11:36:33;1.48;;;0.57;;
54269;SDS011;40181;51.560;13.000;2023-03-13T11:39:10;2.50;;;1.00;;
54269;SDS011;40181;51.560;13.000;2023-03-13T11:45:22;0.38;;;0.38;;
54269;SDS011;40181;51.560;13.000;2023-03-13T11:48:23;0.45;;;0.45;;
54269;SDS011;40181;51.560;13.000;2023-03-13T11:51:30;2.38;;;0.70;;
54269;SDS011;40181;51.560;13.000;2023-03-13T11:54:21;1.00;;;0.68;;
54269;SDS011;40181;51.560;13.000;2023-03-13T11:57:10;0.40;;;0.40;;
54269;SDS011;40181;51.560;13.000;2023-03-13T11:59:47;0.75;;;0.57;;
54269;SDS011;40181;51.560;13.000;2023-03-13T12:02:35;0.98;;;0.70;;
54269;SDS011;40181;51.560;13.000;2023-03-13T12:05:13;2.75;;;0.60;;
54269;SDS011;40181;51.560;13.000;2023-03-13T12:07:49;1.63;;;1.00;;
54269;SDS011;40181;51.560;13.000;2023-03-13T12:10:25;2.85;;;1.15;;
54269;SDS011;40181;51.560;13.000;2023-03-13T12:13:00;4.05;;;1.15;;
54269;SDS011;40181;51.560;13.000;2023-03-13T12:15:35;0.75;;;0.63;;
54269;SDS011;40181;51.560;13.000;2023-03-13T12:18:11;1.70;;;0.70;;
54269;SDS011;40181;51.560;13.000;2023-03-13T12:20:47;1.85;;;0.98;;
54269;SDS011;40181;51.560;13.000;2023-03-13T12:23:27;0.88;;;0.47;;
54269;SDS011;40181;51.560;13.000;2023-03-13T12:26:09;0.47;;;0.47;;
54269;SDS011;40181;51.560;13.000;2023-03-13T12:28:42;1.30;;;0.60;;
54269;SDS011;40181;51.560;13.000;2023-03-13T12:31:20;0.88;;;0.80;;
54269;SDS011;40181;51.560;13.000;2023-03-13T12:33:55;1.60;;;0.70;;
54269;SDS011;40181;51.560;13.000;2023-03-13T12:36:35;1.55;;;0.82;;
54269;SDS011;40181;51.560;13.000;2023-03-13T12:39:17;2.17;;;1.08;;
54269;SDS011;40181;51.560;13.000;2023-03-13T12:42:00;1.70;;;0.57;;
54269;SDS011;40181;51.560;13.000;2023-03-13T12:44:46;0.98;;;0.63;;
54269;SDS011;40181;51.560;13.000;2023-03-13T12:47:16;0.80;;;0.55;;
54269;SDS011;40181;51.560;13.000;2023-03-13T12:49:59;0.60;;;0.50;;
54269;SDS011;40181;51.560;13.000;2023-03-13T12:52:53;0.75;;;0.60;;
54269;SDS011;40181;51.560;13.000;2023-03-13T12:56:04;1.48;;;0.82;;
54269;SDS011;40181;51.560;13.000;2023-03-13T12:59:07;0.68;;;0.50;;
54269;SDS011;40181;51.560;13.000;2023-03-13T13:01:43;0.50;;;0.50;;
54269;SDS011;40181;51.560;13.000;2023-03-13T13:04:16;0.50;;;0.40;;
54269;SDS011;40181;51.560;13.000;2023-03-13T13:06:52;0.85;;;0.65;;
54269;SDS011;40181;51.560;13.000;2023-03-13T13:09:26;0.95;;;0.57;;
54269;SDS011;40181;51.560;13.000;2023-03-13T13:12:00;0.57;;;0.50;;
54269;SDS011;40181;51.560;13.000;2023-03-13T13:20:37;1.30;;;0.70;;
54269;SDS011;40181;51.560;13.000;2023-03-13T13:23:22;1.02;;;0.75;;
54269;SDS011;40181;51.560;13.000;2023-03-13T13:26:35;1.08;;;0.60;;
54269;SDS011;40181;51.560;13.000;2023-03-13T13:32:29;0.95;;;0.55;;
54269;SDS011;40181;51.560;13.000;2023-03-13T13:46:59;0.60;;;0.60;;
54269;SDS011;40181;51.560;13.000;2023-03-13T13:49:33;1.90;;;1.15;;
54269;SDS011;40181;51.560;13.000;2023-03-13T13:58:01;1.20;;;0.63;;
54269;SDS011;40181;51.560;13.000;2023-03-13T14:00:37;1.85;;;0.93;;
54269;SDS011;40181;51.560;13.000;2023-03-13T14:03:17;1.75;;;0.82;;
54269;SDS011;40181;51.560;13.000;2023-03-13T14:05:50;0.40;;;0.40;;
54269;SDS011;40181;51.560;13.000;2023-03-13T14:08:23;2.58;;;0.85;;
54269;SDS011;40181;51.560;13.000;2023-03-13T14:11:04;1.50;;;0.95;;
54269;SDS011;40181;51.560;13.000;2023-03-13T14:16:42;0.57;;;0.50;;
54269;SDS011;40181;51.560;13.000;2023-03-13T14:19:26;1.38;;;0.98;;
54269;SDS011;40181;51.560;13.000;2023-03-13T14:22:00;1.58;;;0.85;;
54269;SDS011;40181;51.560;13.000;2023-03-13T14:27:30;2.22;;;0.75;;
54269;SDS011;40181;51.560;13.000;2023-03-13T14:30:00;0.70;;;0.70;;
54269;SDS011;40181;51.560;13.000;2023-03-13T14:32:29;0.83;;;0.67;;
54269;SDS011;40181;51.560;13.000;2023-03-13T14:34:59;1.65;;;0.70;;
54269;SDS011;40181;51.560;13.000;2023-03-13T14:37:33;0.77;;;0.57;;
54269;SDS011;40181;51.560;13.000;2023-03-13T14:40:05;0.55;;;0.55;;
54269;SDS011;40181;51.560;13.000;2023-03-13T14:42:39;2.60;;;0.65;;
54269;SDS011;40181;51.560;13.000;2023-03-13T14:45:14;0.80;;;0.55;;
54269;SDS011;40181;51.560;13.000;2023-03-13T14:50:28;1.40;;;0.73;;
54269;SDS011;40181;51.560;13.000;2023-03-13T14:52:58;1.55;;;0.93;;
54269;SDS011;40181;51.560;13.000;2023-03-13T14:55:32;2.35;;;0.95;;
54269;SDS011;40181;51.560;13.000;2023-03-13T14:58:25;2.17;;;0.80;;
54269;SDS011;40181;51.560;13.000;2023-03-13T15:00:56;2.45;;;1.23;;
54269;SDS011;40181;51.560;13.000;2023-03-13T15:03:29;0.73;;;0.73;;
54269;SDS011;40181;51.560;13.000;2023-03-13T15:06:06;0.95;;;0.60;;
54269;SDS011;40181;51.560;13.000;2023-03-13T15:08:45;1.27;;;0.90;;
54269;SDS011;40181;51.560;13.000;2023-03-13T15:11:19;1.17;;;0.68;;
54269;SDS011;40181;51.560;13.000;2023-03-13T15:13:57;1.35;;;0.70;;
54269;SDS011;40181;51.560;13.000;2023-03-13T15:16:26;0.93;;;0.65;;
54269;SDS011;40181;51.560;13.000;2023-03-13T15:18:56;1.33;;;0.60;;
54269;SDS011;40181;51.560;13.000;2023-03-13T15:21:26;0.77;;;0.65;;
54269;SDS011;40181;51.560;13.000;2023-03-13T15:23:58;2.72;;;1.15;;
54269;SDS011;40181;51.560;13.000;2023-03-13T15:26:29;1.08;;;0.82;;
54269;SDS011;40181;51.560;13.000;2023-03-13T15:29:01;2.33;;;1.38;;
54269;SDS011;40181;51.560;13.000;2023-03-13T15:31:30;1.88;;;1.00;;
54269;SDS011;40181;51.560;13.000;2023-03-13T15:33:59;2.72;;;0.70;;
54269;SDS011;40181;51.560;13.000;2023-03-13T15:36:29;1.20;;;0.90;;
54269;SDS011;40181;51.560;13.000;2023-03-13T15:38:59;2.50;;;1.23;;
54269;SDS011;40181;51.560;13.000;2023-03-13T15:41:29;0.98;;;0.70;;
54269;SDS011;40181;51.560;13.000;2023-03-13T15:44:01;0.90;;;0.60;;
54269;SDS011;40181;51.560;13.000;2023-03-13T15:46:30;1.65;;;0.95;;
54269;SDS011;40181;51.560;13.000;2023-03-13T15:49:00;3.33;;;1.20;;
54269;SDS011;40181;51.560;13.000;2023-03-13T15:51:35;1.08;;;0.70;;
54269;SDS011;40181;51.560;13.000;2023-03-13T15:54:04;2.17;;;1.02;;